Time;durP1;ratioP1;P1;durP2;ratioP2;P2;SDS_P1;SDS_P2;PMS_P1;PMS_P2;Temp;Humidity;BMP_temperature;BMP_pressure;BME280_temperature;BME280_humidity;BME280_pressure;Samples;Min_cycle;Max_cycle;Signal;HPM_P1;HPM_P2
2021/07/11 00:01:31;;;;;;;3.20;2.90;;;18.00;89.80;;;;;;5024452;28;20188;-91
2021/07/11 00:03:56;;;;;;;3.40;2.90;;;18.10;89.90;;;;;;5022965;28;20513;-90
2021/07/11 00:06:22;;;;;;;4.67;3.10;;;18.00;90.70;;;;;;5023128;28;20550;-92
2021/07/11 00:08:48;;;;;;;4.43;2.97;;;18.10;89.40;;;;;;5040893;28;20254;-90
2021/07/11 00:11:13;;;;;;;3.73;2.80;;;18.10;89.20;;;;;;5022732;28;20181;-91
2021/07/11 00:13:39;;;;;;;3.37;2.73;;;18.10;89.70;;;;;;5023459;28;20221;-89
2021/07/11 00:16:05;;;;;;;3.27;2.80;;;18.20;89.50;;;;;;5040837;28;20212;-89
2021/07/11 00:18:31;;;;;;;4.37;3.07;;;18.30;89.30;;;;;;5040297;28;20227;-90
2021/07/11 00:20:57;;;;;;;3.57;3.23;;;18.20;89.20;;;;;;5022708;28;20190;-91
2021/07/11 00:23:22;;;;;;;3.57;2.97;;;18.20;89.40;;;;;;5040807;28;20268;-91
2021/07/11 00:25:48;;;;;;;3.70;2.80;;;18.20;89.50;;;;;;5040931;28;20186;-91
2021/07/11 00:28:14;;;;;;;4.93;2.83;;;18.10;90.40;;;;;;5041014;28;20212;-90
2021/07/11 00:30:39;;;;;;;3.13;2.70;;;18.10;90.20;;;;;;5022415;28;20222;-90
2021/07/11 00:33:05;;;;;;;4.93;3.20;;;18.20;89.80;;;;;;5040176;28;20217;-91
2021/07/11 00:35:30;;;;;;;4.90;3.17;;;18.20;89.30;;;;;;5039800;28;20205;-92
2021/07/11 00:37:56;;;;;;;3.57;3.07;;;18.20;89.60;;;;;;5039156;28;20676;-91
2021/07/11 00:40:22;;;;;;;3.53;2.97;;;18.20;90.00;;;;;;5039317;28;20182;-89
2021/07/11 00:42:47;;;;;;;3.23;2.90;;;18.20;89.60;;;;;;5019317;28;20513;-89
2021/07/11 00:45:16;;;;;;;5.13;3.30;;;18.30;89.40;;;;;;5020591;28;20189;-89
2021/07/11 00:47:43;;;;;;;3.20;2.90;;;18.20;89.60;;;;;;5019893;28;20261;-90
2021/07/11 00:50:13;;;;;;;3.77;3.47;;;18.20;89.70;;;;;;5002317;28;20189;-89
2021/07/11 00:52:39;;;;;;;3.93;3.00;;;18.20;90.00;;;;;;5001285;28;20186;-90
2021/07/11 00:55:06;;;;;;;3.70;3.00;;;18.20;90.00;;;;;;5021806;28;20208;-89
2021/07/11 00:57:32;;;;;;;4.90;3.00;;;18.10;90.30;;;;;;5007510;28;20196;-89
2021/07/11 00:59:58;;;;;;;3.50;3.10;;;18.10;90.80;;;;;;5011236;28;20224;-88
2021/07/11 01:02:45;;;;;;;3.23;2.93;;;18.00;91.40;;;;;;5035933;28;20192;-89
2021/07/11 01:05:11;;;;;;;3.47;3.10;;;17.90;91.90;;;;;;5020449;28;20178;-90
2021/07/11 01:07:49;;;;;;;5.83;3.13;;;18.00;91.50;;;;;;5024463;28;20181;-87
2021/07/11 01:10:37;;;;;;;3.10;2.90;;;18.10;91.10;;;;;;5039709;28;20162;-88
2021/07/11 01:13:03;;;;;;;3.23;2.93;;;18.10;90.90;;;;;;5032661;28;20170;-90
2021/07/11 01:15:30;;;;;;;5.30;3.17;;;18.00;91.40;;;;;;5020048;28;20209;-89
2021/07/11 01:18:01;;;;;;;5.03;3.30;;;18.00;91.60;;;;;;5037190;28;20201;-89
2021/07/11 01:20:43;;;;;;;6.97;3.77;;;18.10;91.40;;;;;;5039730;28;20196;-89
2021/07/11 01:23:12;;;;;;;4.50;3.47;;;18.10;91.30;;;;;;5040083;28;20171;-89
2021/07/11 01:25:42;;;;;;;4.37;3.17;;;18.10;91.10;;;;;;5021830;28;20203;-89
2021/07/11 01:28:12;;;;;;;4.23;3.73;;;18.10;91.20;;;;;;5039758;28;20563;-89
2021/07/11 01:30:39;;;;;;;3.80;3.40;;;18.10;91.10;;;;;;5005600;28;20177;-89
2021/07/11 01:33:07;;;;;;;5.50;3.40;;;18.10;91.30;;;;;;5020661;28;20216;-90
2021/07/11 01:35:34;;;;;;;4.33;2.90;;;18.00;92.20;;;;;;5005212;28;20223;-89
2021/07/11 01:38:01;;;;;;;4.70;3.60;;;18.00;92.10;;;;;;5039320;28;20197;-90
2021/07/11 01:40:29;;;;;;;3.40;3.10;;;18.10;91.70;;;;;;5039081;28;20198;-89
2021/07/11 01:42:55;;;;;;;4.20;3.37;;;18.10;92.00;;;;;;5039010;28;20178;-89
2021/07/11 01:45:21;;;;;;;8.23;3.20;;;18.10;91.90;;;;;;5024370;28;20211;-88
2021/07/11 01:47:47;;;;;;;3.37;3.07;;;18.10;91.60;;;;;;5041568;28;20208;-89
2021/07/11 01:50:14;;;;;;;4.00;3.40;;;18.10;91.80;;;;;;5022349;28;20191;-89
2021/07/11 01:52:41;;;;;;;4.03;3.63;;;18.10;92.10;;;;;;5001448;28;20220;-89
2021/07/11 01:55:09;;;;;;;5.80;3.60;;;18.00;92.40;;;;;;5018658;28;20591;-89
2021/07/11 01:57:35;;;;;;;3.40;3.10;;;18.10;92.20;;;;;;5019154;28;20405;-88
2021/07/11 02:00:07;;;;;;;3.70;3.40;;;18.10;92.30;;;;;;5030170;28;20618;-90
2021/07/11 02:02:33;;;;;;;3.53;3.23;;;18.10;92.50;;;;;;5034285;28;20240;-89
2021/07/11 02:05:00;;;;;;;4.17;3.10;;;18.20;92.20;;;;;;5018880;28;20270;-89
2021/07/11 02:07:26;;;;;;;3.93;3.53;;;18.10;93.00;;;;;;5012254;28;20266;-89
2021/07/11 02:09:51;;;;;;;4.20;3.80;;;18.20;92.40;;;;;;5004497;28;20644;-89
2021/07/11 02:12:17;;;;;;;3.70;3.33;;;18.20;92.20;;;;;;5021147;28;20204;-89
2021/07/11 02:14:48;;;;;;;4.07;3.60;;;18.10;93.10;;;;;;5039027;28;20236;-89
2021/07/11 02:17:20;;;;;;;5.87;3.53;;;18.10;93.10;;;;;;5020872;28;20177;-89
2021/07/11 02:19:47;;;;;;;6.63;3.57;;;18.00;93.90;;;;;;5028590;28;20216;-90
2021/07/11 02:22:15;;;;;;;4.93;3.37;;;18.10;93.70;;;;;;5017598;28;20192;-89
2021/07/11 02:24:44;;;;;;;6.10;3.20;;;18.00;94.10;;;;;;5001448;28;20421;-89
2021/07/11 02:27:10;;;;;;;5.03;3.70;;;17.90;94.60;;;;;;5017919;28;20189;-89
2021/07/11 02:29:40;;;;;;;5.00;3.97;;;18.00;94.60;;;;;;5000527;28;20210;-89
2021/07/11 02:32:08;;;;;;;3.67;3.37;;;17.90;94.90;;;;;;5000116;28;20570;-89
2021/07/11 02:34:38;;;;;;;7.93;3.40;;;17.90;94.70;;;;;;5000820;28;20235;-89
2021/07/11 02:37:09;;;;;;;4.23;3.37;;;18.00;94.70;;;;;;5017580;28;20244;-89
2021/07/11 02:39:38;;;;;;;4.10;3.60;;;18.00;94.30;;;;;;5038362;28;20204;-89
2021/07/11 02:42:09;;;;;;;4.27;3.43;;;17.90;95.10;;;;;;5037792;28;20196;-89
2021/07/11 02:44:36;;;;;;;4.60;3.80;;;17.90;94.80;;;;;;5019770;28;20196;-89
2021/07/11 02:47:07;;;;;;;4.90;3.80;;;17.90;94.20;;;;;;5037634;28;20214;-89
2021/07/11 02:49:35;;;;;;;3.97;3.40;;;17.90;95.10;;;;;;5037963;28;20207;-90
2021/07/11 02:52:04;;;;;;;4.33;4.00;;;17.90;94.60;;;;;;5031984;28;20177;-90
2021/07/11 02:54:38;;;;;;;4.63;4.23;;;18.00;94.80;;;;;;5029068;28;20193;-89
2021/07/11 02:57:05;;;;;;;5.53;3.93;;;17.90;94.60;;;;;;5038178;28;20201;-89
2021/07/11 02:59:35;;;;;;;3.97;3.67;;;17.90;94.70;;;;;;5019807;28;20279;-89
2021/07/11 03:02:05;;;;;;;5.33;3.60;;;17.80;94.80;;;;;;5036984;28;20216;-89
2021/07/11 03:04:33;;;;;;;4.43;3.67;;;17.90;95.00;;;;;;5037457;28;20211;-90
2021/07/11 03:07:00;;;;;;;4.70;3.53;;;17.90;94.40;;;;;;5037592;28;20252;-90
2021/07/11 03:09:26;;;;;;;4.23;3.53;;;17.90;94.20;;;;;;5008720;28;20579;-90
2021/07/11 03:11:51;;;;;;;7.67;3.73;;;17.80;94.80;;;;;;5017672;28;20197;-89
2021/07/11 03:14:20;;;;;;;4.30;3.23;;;17.80;94.50;;;;;;5017612;28;20186;-88
2021/07/11 03:16:51;;;;;;;3.70;3.40;;;17.90;94.60;;;;;;5017864;28;20218;-89
2021/07/11 03:19:18;;;;;;;4.43;3.50;;;17.90;94.20;;;;;;5016909;28;20228;-89
2021/07/11 03:21:46;;;;;;;3.80;3.47;;;18.00;94.20;;;;;;4999675;28;20189;-89
2021/07/11 03:24:13;;;;;;;4.13;3.40;;;18.00;93.80;;;;;;5000098;28;20187;-90
2021/07/11 03:26:40;;;;;;;4.17;3.57;;;17.80;94.20;;;;;;5000134;28;20212;-89
2021/07/11 03:29:17;;;;;;;4.80;3.80;;;17.90;94.60;;;;;;4999817;28;20202;-89
2021/07/11 03:31:44;;;;;;;4.27;3.87;;;17.90;94.30;;;;;;5017480;28;20626;-89
2021/07/11 03:34:11;;;;;;;4.57;3.83;;;17.90;94.10;;;;;;5017284;28;20736;-89
2021/07/11 03:36:37;;;;;;;4.83;3.70;;;17.80;94.70;;;;;;5018214;28;20568;-89
2021/07/11 03:39:05;;;;;;;5.57;3.93;;;17.80;94.40;;;;;;5016956;28;20193;-89
2021/07/11 03:41:36;;;;;;;4.97;3.73;;;17.80;94.70;;;;;;5022619;28;20310;-89
2021/07/11 03:44:04;;;;;;;3.97;3.57;;;17.80;94.80;;;;;;5020128;28;20203;-89
2021/07/11 03:46:33;;;;;;;4.40;4.00;;;17.70;95.00;;;;;;5038234;28;20208;-89
2021/07/11 03:49:04;;;;;;;4.10;3.80;;;17.80;95.40;;;;;;5021674;28;20566;-87
2021/07/11 03:51:35;;;;;;;5.37;3.90;;;17.70;95.60;;;;;;5023973;28;20166;-88
2021/07/11 03:54:02;;;;;;;6.57;3.90;;;17.70;95.60;;;;;;5043314;28;20188;-89
2021/07/11 03:56:31;;;;;;;4.40;4.00;;;17.70;95.80;;;;;;5036532;28;20200;-90
2021/07/11 03:58:58;;;;;;;4.60;4.20;;;17.60;96.00;;;;;;5032942;28;20221;-88
2021/07/11 04:01:32;;;;;;;4.87;4.47;;;17.60;95.90;;;;;;5026779;28;20200;-87
2021/07/11 04:03:59;;;;;;;6.10;3.80;;;17.60;95.60;;;;;;5010233;28;20202;-89
2021/07/11 04:06:28;;;;;;;6.50;3.90;;;17.70;95.20;;;;;;5017417;28;20671;-90
2021/07/11 04:08:56;;;;;;;9.10;4.30;;;17.70;95.20;;;;;;4999133;28;20197;-89
2021/07/11 04:11:23;;;;;;;5.73;3.90;;;17.60;95.10;;;;;;4983183;28;20194;-90
2021/07/11 04:13:49;;;;;;;6.00;4.07;;;17.60;95.40;;;;;;5016952;28;20194;-90
2021/07/11 04:16:16;;;;;;;8.90;4.10;;;17.60;95.20;;;;;;5016715;28;20244;-88
2021/07/11 04:18:48;;;;;;;5.47;4.17;;;17.60;95.00;;;;;;4999287;28;20300;-89
2021/07/11 04:21:14;;;;;;;4.23;3.70;;;17.60;95.20;;;;;;5017610;28;20662;-89
2021/07/11 04:23:41;;;;;;;4.83;4.40;;;17.60;95.20;;;;;;4999628;28;20203;-89
2021/07/11 04:26:08;;;;;;;7.50;4.23;;;17.50;95.30;;;;;;5017046;28;20193;-90
2021/07/11 04:28:37;;;;;;;4.87;4.23;;;17.40;94.80;;;;;;4999000;28;20204;-89
2021/07/11 04:31:05;;;;;;;5.50;4.00;;;17.40;95.60;;;;;;5016986;28;20174;-88
2021/07/11 04:33:31;;;;;;;5.40;4.17;;;17.40;95.50;;;;;;5016194;28;20200;-89
2021/07/11 04:35:58;;;;;;;4.57;3.90;;;17.50;95.10;;;;;;5019225;28;20709;-91
2021/07/11 04:38:24;;;;;;;6.57;4.17;;;17.50;94.70;;;;;;5001403;28;20236;-91
2021/07/11 04:40:50;;;;;;;5.77;4.10;;;17.60;94.40;;;;;;5018463;28;20205;-89
2021/07/11 04:43:17;;;;;;;4.30;3.90;;;17.50;94.20;;;;;;5019074;28;20174;-90
2021/07/11 04:45:44;;;;;;;7.87;4.60;;;17.60;94.10;;;;;;5002025;28;20280;-90
2021/07/11 04:48:10;;;;;;;7.13;4.20;;;17.60;93.60;;;;;;5002290;28;20648;-89
2021/07/11 04:50:36;;;;;;;4.97;4.47;;;17.60;93.60;;;;;;5020434;28;20199;-90
2021/07/11 04:53:02;;;;;;;6.20;3.63;;;17.60;92.70;;;;;;5020858;28;20209;-89
2021/07/11 04:55:27;;;;;;;8.93;4.50;;;17.60;92.50;;;;;;5020109;28;20743;-90
2021/07/11 04:57:53;;;;;;;7.63;4.47;;;17.60;92.70;;;;;;4993001;28;20287;-89
2021/07/11 05:00:20;;;;;;;4.57;3.70;;;17.60;92.70;;;;;;5034239;28;20261;-90
2021/07/11 05:02:46;;;;;;;4.37;3.97;;;17.60;92.60;;;;;;5038359;28;20199;-88
2021/07/11 05:05:11;;;;;;;6.03;4.20;;;17.50;93.40;;;;;;5041506;28;20208;-90
2021/07/11 05:07:37;;;;;;;4.50;3.97;;;17.60;92.90;;;;;;5040297;28;20199;-89
2021/07/11 05:10:08;;;;;;;5.53;4.17;;;17.70;92.80;;;;;;5039620;28;20206;-90
2021/07/11 05:12:34;;;;;;;5.27;3.97;;;17.70;92.80;;;;;;5039162;28;20161;-90
2021/07/11 05:15:00;;;;;;;6.80;4.10;;;17.80;92.40;;;;;;5021027;28;20216;-89
2021/07/11 05:17:26;;;;;;;5.37;4.83;;;17.80;92.30;;;;;;5021792;28;20195;-90
2021/07/11 05:19:52;;;;;;;4.93;3.67;;;17.80;92.50;;;;;;5040081;28;20241;-89
2021/07/11 05:22:17;;;;;;;7.23;3.80;;;17.70;92.40;;;;;;5039923;28;20681;-89
2021/07/11 05:24:43;;;;;;;6.70;4.20;;;17.60;92.90;;;;;;5022444;28;20187;-89
2021/07/11 05:27:09;;;;;;;4.40;4.00;;;17.70;90.90;;;;;;5005766;28;20184;-89
2021/07/11 05:29:34;;;;;;;6.23;3.90;;;17.80;90.90;;;;;;5039945;28;20205;-89
2021/07/11 05:32:00;;;;;;;6.73;3.77;;;17.70;90.10;;;;;;5035636;28;20208;-89
2021/07/11 05:34:26;;;;;;;5.87;4.53;;;17.70;90.40;;;;;;5019200;28;20452;-89
2021/07/11 05:36:51;;;;;;;4.37;3.93;;;17.70;91.10;;;;;;5001566;28;20245;-90
2021/07/11 05:39:19;;;;;;;6.47;3.87;;;17.80;90.70;;;;;;5019224;28;20596;-89
2021/07/11 05:41:45;;;;;;;10.87;4.47;;;17.70;92.20;;;;;;5021890;28;20173;-92
2021/07/11 05:44:11;;;;;;;4.77;4.30;;;17.80;90.50;;;;;;5002632;28;20185;-90
2021/07/11 05:46:37;;;;;;;6.37;3.83;;;18.00;90.10;;;;;;5020012;28;20202;-90
2021/07/11 05:49:03;;;;;;;4.17;3.60;;;17.90;89.40;;;;;;5002140;28;20216;-89
2021/07/11 05:51:29;;;;;;;4.60;3.60;;;17.80;89.00;;;;;;5020570;28;20480;-89
2021/07/11 05:53:54;;;;;;;6.37;4.10;;;17.90;88.80;;;;;;5002019;28;20178;-89
2021/07/11 05:56:20;;;;;;;5.70;3.80;;;17.80;88.90;;;;;;5018103;28;20433;-90
2021/07/11 05:58:46;;;;;;;5.17;4.00;;;17.80;88.70;;;;;;5019009;28;20219;-90
2021/07/11 06:01:11;;;;;;;6.00;4.00;;;18.00;88.20;;;;;;5019220;28;20212;-90
2021/07/11 06:03:37;;;;;;;4.93;3.40;;;18.10;87.40;;;;;;5019380;28;20182;-88
2021/07/11 06:06:03;;;;;;;5.93;3.50;;;18.30;85.80;;;;;;5000953;28;20190;-88
2021/07/11 06:08:29;;;;;;;4.03;3.63;;;18.40;87.60;;;;;;5018816;28;20197;-88
2021/07/11 06:10:55;;;;;;;4.00;3.40;;;18.60;85.30;;;;;;5020396;28;20615;-88
2021/07/11 06:13:21;;;;;;;4.17;3.20;;;18.50;83.60;;;;;;5031941;28;20202;-89
2021/07/11 06:15:47;;;;;;;5.73;3.67;;;18.60;84.40;;;;;;5038942;28;20804;-88
2021/07/11 06:18:13;;;;;;;6.30;4.00;;;18.30;83.90;;;;;;5038219;28;20219;-88
2021/07/11 06:20:39;;;;;;;4.43;3.40;;;18.30;84.00;;;;;;5009014;28;20194;-88
2021/07/11 06:23:04;;;;;;;6.23;3.33;;;18.40;83.80;;;;;;5019097;28;20597;-89
2021/07/11 06:25:30;;;;;;;4.00;3.47;;;18.50;84.30;;;;;;5002078;28;20192;-90
2021/07/11 06:27:56;;;;;;;3.50;3.20;;;18.50;84.30;;;;;;5020275;28;20215;-89
2021/07/11 06:30:22;;;;;;;3.83;3.40;;;18.40;83.40;;;;;;5019055;28;20202;-89
2021/07/11 06:32:49;;;;;;;4.93;3.33;;;18.40;83.10;;;;;;5018730;28;20199;-89
2021/07/11 06:35:17;;;;;;;6.33;3.87;;;18.50;84.20;;;;;;5019132;28;20212;-90
2021/07/11 06:37:45;;;;;;;3.77;3.40;;;18.60;83.80;;;;;;5018755;28;20196;-89
2021/07/11 06:40:13;;;;;;;4.97;3.70;;;18.80;84.70;;;;;;5027056;28;20182;-90
2021/07/11 06:42:39;;;;;;;4.60;3.23;;;18.80;82.10;;;;;;5018254;28;20215;-89
2021/07/11 06:45:07;;;;;;;3.73;3.30;;;18.80;80.50;;;;;;5002721;28;20189;-88
2021/07/11 06:47:32;;;;;;;5.97;3.53;;;18.90;80.40;;;;;;5025237;28;20205;-88
2021/07/11 06:49:58;;;;;;;4.63;2.87;;;18.90;79.90;;;;;;5019710;28;20835;-89
2021/07/11 06:52:24;;;;;;;6.23;3.17;;;18.90;79.00;;;;;;5023611;28;20193;-90
2021/07/11 06:54:51;;;;;;;3.10;2.80;;;18.80;78.70;;;;;;5027553;28;20229;-89
2021/07/11 06:57:18;;;;;;;5.00;3.30;;;18.70;79.20;;;;;;4990483;28;20181;-89
2021/07/11 06:59:44;;;;;;;3.50;3.17;;;18.60;79.50;;;;;;5037566;28;20309;-88
2021/07/11 07:02:09;;;;;;;5.23;3.20;;;18.60;78.30;;;;;;5004361;28;20201;-89
2021/07/11 07:04:35;;;;;;;4.50;2.97;;;18.60;79.00;;;;;;4991354;28;20214;-88
2021/07/11 07:07:02;;;;;;;6.37;3.30;;;18.60;79.40;;;;;;5018508;28;20653;-88
2021/07/11 07:09:28;;;;;;;3.43;3.13;;;18.60;79.80;;;;;;5012449;28;20209;-90
2021/07/11 07:11:53;;;;;;;3.67;3.08;;;18.60;79.40;;;;;;5037587;28;20258;-89
2021/07/11 07:14:19;;;;;;;7.23;3.30;;;18.70;78.30;;;;;;5020235;28;20185;-90
2021/07/11 07:16:45;;;;;;;3.83;3.50;;;18.80;77.90;;;;;;5019440;28;20220;-91
2021/07/11 07:19:10;;;;;;;4.77;3.10;;;18.80;78.70;;;;;;5037129;28;20200;-90
2021/07/11 07:21:36;;;;;;;4.83;3.40;;;18.70;79.10;;;;;;5036741;28;20179;-90
2021/07/11 07:24:02;;;;;;;4.00;3.30;;;18.80;81.20;;;;;;5037738;28;20334;-90
2021/07/11 07:26:27;;;;;;;6.80;3.73;;;18.70;80.50;;;;;;5037152;28;20265;-90
2021/07/11 07:28:53;;;;;;;3.90;3.60;;;18.80;80.70;;;;;;5036693;28;20218;-90
2021/07/11 07:31:19;;;;;;;5.63;3.37;;;19.00;81.70;;;;;;5036762;28;20278;-90
2021/07/11 07:33:44;;;;;;;4.30;3.20;;;19.00;80.40;;;;;;5037862;28;20223;-90
2021/07/11 07:36:10;;;;;;;4.07;3.67;;;19.00;78.50;;;;;;5037107;28;20249;-90
2021/07/11 07:38:36;;;;;;;4.57;3.38;;;18.90;79.60;;;;;;5019166;28;20258;-89
2021/07/11 07:41:02;;;;;;;5.43;3.22;;;19.20;78.90;;;;;;5036847;28;20222;-89
2021/07/11 07:43:27;;;;;;;5.90;3.30;;;19.30;79.00;;;;;;5002773;28;20679;-89
2021/07/11 07:45:53;;;;;;;5.13;3.25;;;19.50;78.30;;;;;;5018619;28;20195;-90
2021/07/11 07:48:19;;;;;;;4.10;3.80;;;19.60;78.10;;;;;;5038311;28;20205;-90
2021/07/11 07:50:44;;;;;;;5.53;3.72;;;19.70;78.80;;;;;;5021542;28;20200;-89
2021/07/11 07:53:10;;;;;;;3.92;3.53;;;19.80;79.00;;;;;;5022205;28;20196;-89
2021/07/11 07:55:36;;;;;;;6.60;4.18;;;19.80;76.80;;;;;;5040377;28;20306;-90
2021/07/11 07:58:02;;;;;;;4.40;3.65;;;19.90;75.90;;;;;;5018548;28;20932;-89
2021/07/11 08:00:28;;;;;;;7.15;3.67;;;19.90;78.40;;;;;;5025498;28;20192;-88
2021/07/11 08:02:54;;;;;;;6.35;4.43;;;20.10;79.60;;;;;;5020836;28;20197;-90
2021/07/11 08:05:20;;;;;;;4.07;3.53;;;20.10;77.30;;;;;;5028109;28;20189;-89
2021/07/11 08:07:47;;;;;;;5.57;3.60;;;20.20;74.50;;;;;;5021204;28;20209;-89
2021/07/11 08:10:15;;;;;;;3.88;3.42;;;20.00;73.30;;;;;;5022590;28;20188;-90
2021/07/11 08:12:45;;;;;;;4.00;3.60;;;20.00;76.20;;;;;;5017781;28;20260;-89
2021/07/11 08:15:16;;;;;;;6.38;3.75;;;20.20;78.20;;;;;;5003598;28;20205;-89
2021/07/11 08:17:43;;;;;;;6.85;4.20;;;20.40;74.30;;;;;;5004300;28;20168;-90
2021/07/11 08:20:10;;;;;;;6.13;3.63;;;20.30;75.60;;;;;;5024424;28;20189;-90
2021/07/11 08:22:35;;;;;;;4.80;3.72;;;20.30;74.50;;;;;;5032287;28;20179;-89
2021/07/11 08:25:02;;;;;;;5.72;3.40;;;20.40;72.30;;;;;;5031869;28;20194;-90
2021/07/11 08:27:27;;;;;;;8.13;3.83;;;20.60;74.60;;;;;;5032317;28;20672;-89
2021/07/11 08:29:53;;;;;;;5.47;3.83;;;20.50;76.90;;;;;;5011837;28;20244;-90
2021/07/11 08:32:19;;;;;;;4.68;4.13;;;20.60;75.80;;;;;;5018289;28;20227;-90
2021/07/11 08:34:45;;;;;;;3.67;3.30;;;20.80;73.40;;;;;;5039459;28;20227;-90
2021/07/11 08:37:11;;;;;;;4.55;3.65;;;20.70;71.50;;;;;;5030163;28;20182;-90
2021/07/11 08:39:36;;;;;;;4.00;3.60;;;20.70;71.50;;;;;;5031026;28;20201;-90
2021/07/11 08:42:02;;;;;;;3.72;3.20;;;20.70;74.00;;;;;;5036098;28;20242;-90
2021/07/11 08:44:28;;;;;;;3.97;3.67;;;20.90;71.20;;;;;;5043522;28;20195;-89
2021/07/11 08:46:54;;;;;;;4.03;3.63;;;20.80;71.30;;;;;;5026422;28;20189;-88
2021/07/11 08:49:22;;;;;;;5.45;3.83;;;21.10;70.10;;;;;;5043077;28;20242;-89
2021/07/11 08:51:48;;;;;;;3.40;3.10;;;21.20;70.30;;;;;;5022832;28;20188;-91
2021/07/11 08:54:15;;;;;;;3.50;3.08;;;21.40;67.70;;;;;;5018274;28;20301;-89
2021/07/11 08:56:41;;;;;;;4.95;3.40;;;21.60;68.60;;;;;;5024955;28;20262;-89
2021/07/11 08:59:07;;;;;;;4.32;3.25;;;21.60;67.20;;;;;;5030593;28;20541;-89
2021/07/11 09:01:33;;;;;;;3.50;3.20;;;21.50;69.70;;;;;;5026310;28;20216;-89
2021/07/11 09:04:10;;;;;;;5.15;3.20;;;21.50;70.20;;;;;;5006983;28;20260;-90
2021/07/11 09:06:46;;;;;;;3.83;3.35;;;21.70;69.20;;;;;;5033489;28;20742;-88
2021/07/11 09:09:22;;;;;;;3.33;3.00;;;21.30;69.60;;;;;;5035615;28;20286;-89
2021/07/11 09:12:01;;;;;;;4.82;3.15;;;21.30;68.90;;;;;;5035297;28;20192;-89
2021/07/11 09:14:28;;;;;;;4.07;3.55;;;21.40;68.30;;;;;;5012875;28;20190;-89
2021/07/11 09:16:57;;;;;;;5.50;3.40;;;21.70;68.00;;;;;;5023005;28;20475;-90
2021/07/11 09:19:32;;;;;;;4.57;3.33;;;21.80;65.10;;;;;;5024010;28;20205;-90
2021/07/11 09:22:11;;;;;;;6.68;3.47;;;22.00;65.60;;;;;;5022466;28;20326;-90
2021/07/11 09:24:45;;;;;;;3.63;3.25;;;22.00;65.50;;;;;;5021132;28;20227;-89
2021/07/11 09:27:20;;;;;;;4.70;3.15;;;22.20;63.90;;;;;;5017768;28;20184;-89
2021/07/11 09:29:47;;;;;;;3.28;3.00;;;22.60;62.20;;;;;;5023272;28;20243;-89
2021/07/11 09:32:42;;;;;;;3.42;3.10;;;22.90;61.70;;;;;;5013189;28;20189;-89
2021/07/11 09:35:15;;;;;;;5.57;3.20;;;23.10;60.20;;;;;;5011437;28;20634;-90
2021/07/11 09:37:45;;;;;;;3.60;3.33;;;23.30;61.20;;;;;;5035405;28;20180;-87
2021/07/11 09:40:14;;;;;;;3.70;3.40;;;23.30;60.80;;;;;;5043380;28;20189;-88
2021/07/11 09:42:42;;;;;;;3.53;3.22;;;23.50;59.40;;;;;;5024471;28;20173;-89
2021/07/11 09:45:28;;;;;;;3.13;2.80;;;23.50;57.80;;;;;;5024874;28;20213;-90
2021/07/11 09:48:12;;;;;;;3.55;2.90;;;23.50;59.30;;;;;;5032400;28;20223;-89
2021/07/11 09:50:38;;;;;;;3.30;3.00;;;23.60;58.30;;;;;;5019015;28;20269;-90
2021/07/11 09:53:08;;;;;;;3.75;3.08;;;23.70;59.40;;;;;;5025766;28;20193;-89
2021/07/11 09:55:36;;;;;;;5.20;3.20;;;23.70;58.00;;;;;;5009711;28;20220;-90
2021/07/11 09:58:04;;;;;;;5.32;3.03;;;23.90;57.30;;;;;;5028109;28;20249;-87
2021/07/11 10:00:32;;;;;;;4.00;3.20;;;23.60;57.60;;;;;;5045660;28;20178;-88
2021/07/11 10:03:00;;;;;;;3.53;2.95;;;23.50;58.80;;;;;;5038526;28;20197;-89
2021/07/11 10:05:28;;;;;;;6.85;3.17;;;23.60;58.10;;;;;;5032921;28;20185;-88
2021/07/11 10:07:55;;;;;;;3.42;3.22;;;23.60;56.20;;;;;;5040420;28;20201;-90
2021/07/11 10:10:24;;;;;;;3.20;2.83;;;23.50;56.80;;;;;;5033130;28;20186;-90
2021/07/11 10:12:50;;;;;;;3.58;3.28;;;23.70;57.40;;;;;;5018022;28;20188;-90
2021/07/11 10:15:18;;;;;;;3.15;2.95;;;23.70;57.00;;;;;;5015351;28;20213;-90
2021/07/11 10:17:49;;;;;;;4.07;2.92;;;23.70;57.50;;;;;;5026431;28;20215;-90
2021/07/11 10:20:18;;;;;;;4.93;2.97;;;23.70;57.90;;;;;;5020977;28;20664;-90
2021/07/11 10:22:50;;;;;;;2.67;2.50;;;24.00;56.20;;;;;;5023115;28;20205;-90
2021/07/11 10:25:19;;;;;;;3.70;3.20;;;24.30;55.60;;;;;;5004894;28;20196;-90
2021/07/11 10:27:46;;;;;;;3.03;2.70;;;24.40;56.40;;;;;;5030693;28;20260;-90
2021/07/11 10:30:12;;;;;;;4.68;3.03;;;24.20;56.70;;;;;;5022846;28;20186;-90
2021/07/11 10:32:38;;;;;;;3.10;2.75;;;24.00;57.70;;;;;;5018375;28;20198;-90
2021/07/11 10:35:15;;;;;;;4.13;3.72;;;23.90;59.80;;;;;;5016461;28;20209;-90
2021/07/11 10:37:43;;;;;;;4.82;3.40;;;24.10;61.80;;;;;;5017499;28;20723;-89
2021/07/11 10:40:11;;;;;;;4.22;3.58;;;24.10;62.30;;;;;;5013364;28;20248;-90
2021/07/11 10:42:37;;;;;;;5.25;3.42;;;24.10;61.30;;;;;;5024325;28;20712;-90
2021/07/11 10:45:05;;;;;;;4.35;3.95;;;24.00;61.50;;;;;;5020967;28;20209;-89
2021/07/11 10:47:31;;;;;;;7.20;3.88;;;24.00;60.40;;;;;;5026450;28;20338;-90
2021/07/11 10:49:57;;;;;;;4.35;3.58;;;24.20;62.20;;;;;;5035289;28;20552;-90
2021/07/11 10:52:25;;;;;;;3.65;3.35;;;24.20;63.30;;;;;;5030191;28;20524;-90
2021/07/11 10:54:53;;;;;;;4.55;3.40;;;24.50;58.80;;;;;;5038265;28;20200;-90
2021/07/11 10:57:36;;;;;;;3.63;3.13;;;24.70;57.70;;;;;;5025333;28;20611;-90
2021/07/11 11:00:15;;;;;;;3.08;2.88;;;24.60;58.00;;;;;;5008524;28;20274;-90
2021/07/11 11:02:41;;;;;;;5.07;3.25;;;24.60;57.90;;;;;;5006245;28;20189;-90
2021/07/11 11:05:12;;;;;;;3.17;2.88;;;24.30;58.70;;;;;;5016700;28;20208;-90
2021/07/11 11:07:53;;;;;;;3.00;2.80;;;23.90;58.00;;;;;;5028103;28;20198;-89
2021/07/11 11:10:29;;;;;;;3.45;3.20;;;23.20;58.40;;;;;;5019525;28;20193;-89
2021/07/11 11:13:17;;;;;;;7.35;2.80;;;23.10;60.50;;;;;;5019769;28;20186;-90
2021/07/11 11:15:59;;;;;;;2.97;2.67;;;23.00;59.30;;;;;;5015752;28;20241;-90
2021/07/11 11:18:27;;;;;;;3.00;2.80;;;22.90;59.30;;;;;;5022308;28;20212;-90
2021/07/11 11:20:57;;;;;;;3.47;3.17;;;22.80;61.10;;;;;;5023433;28;20838;-91
2021/07/11 11:23:24;;;;;;;2.97;2.50;;;22.80;60.40;;;;;;5016707;28;20185;-90
2021/07/11 11:25:49;;;;;;;3.88;2.80;;;22.90;59.60;;;;;;5031169;28;20230;-89
2021/07/11 11:28:29;;;;;;;3.83;2.60;;;23.10;57.40;;;;;;5036753;28;20220;-90
2021/07/11 11:31:34;;;;;;;2.88;2.60;;;23.50;57.20;;;;;;5021573;28;20280;-90
2021/07/11 11:34:05;;;;;;;3.55;3.03;;;23.20;60.70;;;;;;5012523;28;20205;-90
2021/07/11 11:36:45;;;;;;;4.18;3.30;;;23.00;62.50;;;;;;5001222;28;20209;-91
2021/07/11 11:39:24;;;;;;;3.60;3.30;;;23.00;63.10;;;;;;5014028;28;20204;-91
2021/07/11 11:41:50;;;;;;;4.13;3.67;;;22.90;63.80;;;;;;5019859;28;20671;-91
2021/07/11 11:44:21;;;;;;;3.53;3.22;;;22.80;65.50;;;;;;5012200;28;20185;-90
2021/07/11 11:46:49;;;;;;;3.60;3.30;;;22.90;64.00;;;;;;4998339;28;20194;-91
2021/07/11 11:49:19;;;;;;;3.78;3.17;;;22.80;63.60;;;;;;5015979;28;20275;-91
2021/07/11 11:51:51;;;;;;;3.28;2.97;;;22.80;63.70;;;;;;5019282;28;20198;-91
2021/07/11 11:54:37;;;;;;;4.75;3.15;;;22.90;63.80;;;;;;5019637;28;20548;-90
2021/07/11 11:57:06;;;;;;;2.97;2.78;;;23.00;63.50;;;;;;5027944;28;20669;-90
2021/07/11 11:59:32;;;;;;;3.67;3.15;;;23.10;62.40;;;;;;5027458;28;20276;-91
2021/07/11 12:02:02;;;;;;;3.30;3.10;;;23.20;62.50;;;;;;5009691;28;20181;-91
2021/07/11 12:04:29;;;;;;;2.90;2.67;;;23.30;61.30;;;;;;5019971;28;20182;-91
2021/07/11 12:06:57;;;;;;;3.55;3.25;;;23.20;61.80;;;;;;5023706;28;20196;-90
2021/07/11 12:09:32;;;;;;;3.30;2.72;;;23.40;61.90;;;;;;5022312;28;20244;-87
2021/07/11 12:12:00;;;;;;;3.30;2.97;;;23.20;61.30;;;;;;5022996;28;20196;-89
2021/07/11 12:14:26;;;;;;;3.22;2.92;;;23.00;62.00;;;;;;5017426;28;20196;-88
2021/07/11 12:17:00;;;;;;;3.40;3.10;;;23.00;61.60;;;;;;5039842;28;20217;-89
2021/07/11 12:19:26;;;;;;;3.67;2.92;;;23.10;61.80;;;;;;5029592;28;20718;-89
2021/07/11 12:21:53;;;;;;;3.00;2.80;;;23.10;60.90;;;;;;5008827;28;20185;-89
2021/07/11 12:24:24;;;;;;;2.60;2.47;;;23.00;61.70;;;;;;5028149;28;20222;-89
2021/07/11 12:26:54;;;;;;;2.80;2.60;;;23.10;61.90;;;;;;5029808;28;20189;-89
2021/07/11 12:29:29;;;;;;;2.97;2.78;;;23.20;62.30;;;;;;5022804;28;20220;-90
2021/07/11 12:32:00;;;;;;;4.22;2.85;;;23.20;62.70;;;;;;5014452;28;20188;-89
2021/07/11 12:34:26;;;;;;;2.63;2.42;;;23.50;62.20;;;;;;5023328;28;20264;-89
2021/07/11 12:36:55;;;;;;;3.10;2.65;;;23.50;61.70;;;;;;5027112;28;20221;-89
2021/07/11 12:39:23;;;;;;;4.18;2.45;;;23.30;61.30;;;;;;5021488;28;20251;-89
2021/07/11 12:41:49;;;;;;;2.80;2.50;;;23.50;60.70;;;;;;5030040;28;20181;-90
2021/07/11 12:44:17;;;;;;;3.00;2.80;;;23.40;60.40;;;;;;5024645;28;20193;-89
2021/07/11 12:46:43;;;;;;;3.13;2.83;;;23.60;60.00;;;;;;5027189;28;20189;-89
2021/07/11 12:49:15;;;;;;;3.33;2.83;;;23.60;58.10;;;;;;5030622;28;20628;-89
2021/07/11 12:51:43;;;;;;;2.70;2.50;;;23.60;59.90;;;;;;5024434;28;20182;-89
2021/07/11 12:54:08;;;;;;;2.85;2.65;;;23.80;59.50;;;;;;5033882;28;20668;-89